createdAt,value
2022-08-08T00:00:53.657Z,15.16
2022-08-08T00:02:57.033Z,15.15
2022-08-08T00:06:14.428Z,15.12
2022-08-08T00:09:33.209Z,15.10
2022-08-08T00:12:56.503Z,15.14
2022-08-08T00:16:11.157Z,15.16
2022-08-08T00:19:29.650Z,15.16
2022-08-08T00:22:49.843Z,15.10
2022-08-08T00:26:06.109Z,15.18
2022-08-08T00:29:44.985Z,15.19
2022-08-08T00:32:46.810Z,15.19
2022-08-08T00:36:05.523Z,15.16
2022-08-08T00:41:08.113Z,15.18
2022-08-08T00:43:11.846Z,15.15
2022-08-08T00:47:02.076Z,15.06
2022-08-08T00:51:07.087Z,14.94
2022-08-08T00:55:18.941Z,14.98
2022-08-08T00:59:43.989Z,15.02
2022-08-08T01:04:00.940Z,14.99
2022-08-08T01:07:55.476Z,14.98
2022-08-08T01:11:39.415Z,15.00
2022-08-08T01:15:56.845Z,14.81
2022-08-08T01:20:03.306Z,14.80
2022-08-08T01:24:03.326Z,14.76
2022-08-08T01:27:33.082Z,14.69
2022-08-08T01:32:13.074Z,14.65
2022-08-08T01:35:44.529Z,14.77
2022-08-08T01:39:35.091Z,14.81
2022-08-08T01:42:52.127Z,14.86
2022-08-08T01:46:13.993Z,14.91
2022-08-08T01:49:37.742Z,14.86
2022-08-08T01:54:05.295Z,14.85
2022-08-08T01:56:29.294Z,14.80
2022-08-08T02:00:02.151Z,14.81
2022-08-08T02:03:57.744Z,14.90
2022-08-08T02:07:06.078Z,14.79
2022-08-08T02:10:45.141Z,14.74
2022-08-08T02:13:59.835Z,14.60
2022-08-08T02:17:23.291Z,14.46
2022-08-08T02:21:01.900Z,14.51
2022-08-08T02:24:04.425Z,14.57
2022-08-08T02:27:21.701Z,14.60
2022-08-08T02:30:49.998Z,14.59
2022-08-08T02:34:09.117Z,14.62
2022-08-08T02:37:53.469Z,14.57
2022-08-08T02:40:50.087Z,14.62
2022-08-08T02:44:57.271Z,14.61
2022-08-08T02:48:40.901Z,14.67
2022-08-08T02:52:39.166Z,14.67
2022-08-08T02:56:36.783Z,14.62
2022-08-08T03:00:33.679Z,14.53
2022-08-08T03:05:03.240Z,14.43
2022-08-08T03:08:52.310Z,14.47
2022-08-08T03:13:01.680Z,14.50
2022-08-08T03:16:43.346Z,14.53
2022-08-08T03:20:08.306Z,14.57
2022-08-08T03:23:22.413Z,14.54
2022-08-08T03:26:43.141Z,14.57
2022-08-08T03:30:02.879Z,14.66
2022-08-08T03:33:55.699Z,14.73
2022-08-08T03:36:44.724Z,14.72
2022-08-08T03:40:00.511Z,14.70
2022-08-08T03:43:15.647Z,14.72
2022-08-08T03:46:32.615Z,14.75
2022-08-08T03:50:00.845Z,14.74
2022-08-08T03:53:00.025Z,14.73
2022-08-08T03:56:32.277Z,14.65
2022-08-08T03:59:27.223Z,14.65
2022-08-08T04:02:47.838Z,14.57
2022-08-08T04:05:54.546Z,14.55
2022-08-08T04:09:11.857Z,14.61
2022-08-08T04:12:25.689Z,14.76
2022-08-08T04:15:39.299Z,14.76
2022-08-08T04:18:54.162Z,14.72
2022-08-08T04:22:07.729Z,14.83
2022-08-08T04:25:23.310Z,14.81
2022-08-08T04:28:40.534Z,14.81
2022-08-08T04:31:59.854Z,14.85
2022-08-08T04:35:05.363Z,14.89
2022-08-08T04:38:21.303Z,14.87
2022-08-08T04:41:35.804Z,14.90
2022-08-08T04:44:49.320Z,14.96
2022-08-08T04:48:01.429Z,14.93
2022-08-08T04:51:17.503Z,14.97
2022-08-08T04:54:39.590Z,15.01
2022-08-08T04:57:43.371Z,15.04
2022-08-08T05:00:55.419Z,15.07
2022-08-08T05:04:12.646Z,15.11
2022-08-08T05:07:24.149Z,15.06
2022-08-08T05:10:38.315Z,14.99
2022-08-08T05:13:58.605Z,14.90
2022-08-08T05:17:09.014Z,14.87
2022-08-08T05:20:19.758Z,14.91
2022-08-08T05:23:32.728Z,15.00
2022-08-08T05:26:48.747Z,15.01
2022-08-08T05:30:00.795Z,14.98
2022-08-08T05:33:14.390Z,15.05
2022-08-08T05:36:30.713Z,15.04
2022-08-08T05:39:43.976Z,14.99
2022-08-08T05:43:01.782Z,15.02
2022-08-08T05:46:13.523Z,14.95
2022-08-08T05:49:28.424Z,14.97
2022-08-08T05:52:44.046Z,15.02
2022-08-08T05:56:08.014Z,15.15
2022-08-08T05:59:15.617Z,15.08
2022-08-08T06:02:46.823Z,15.08
2022-08-08T06:06:06.643Z,15.11
2022-08-08T06:09:58.894Z,15.12
2022-08-08T06:12:37.741Z,15.23
2022-08-08T06:15:54.905Z,15.30
2022-08-08T06:19:25.718Z,15.23
2022-08-08T06:22:42.126Z,15.26
2022-08-08T06:26:43.124Z,15.28
2022-08-08T06:29:48.526Z,15.36
2022-08-08T06:32:34.024Z,15.43
2022-08-08T06:36:04.621Z,15.32
2022-08-08T06:39:10.898Z,15.24
2022-08-08T06:42:26.491Z,15.26
2022-08-08T06:45:42.732Z,15.30
2022-08-08T06:48:56.135Z,15.40
2022-08-08T06:52:09.458Z,15.55
2022-08-08T06:55:23.555Z,15.58
2022-08-08T06:58:36.893Z,15.57
2022-08-08T07:02:26.814Z,15.56
2022-08-08T07:05:20.046Z,15.65
2022-08-08T07:08:37.472Z,15.74
2022-08-08T07:11:53.099Z,15.83
2022-08-08T07:15:15.486Z,15.85
2022-08-08T07:18:40.505Z,15.83
2022-08-08T07:22:05.411Z,15.84
2022-08-08T07:25:17.363Z,15.88
2022-08-08T07:28:31.552Z,15.97
2022-08-08T07:31:46.687Z,16.04
2022-08-08T07:35:02.579Z,16.04
2022-08-08T07:38:25.636Z,16.15
2022-08-08T07:42:03.869Z,16.30
2022-08-08T07:44:53.393Z,16.48
2022-08-08T07:48:08.726Z,16.59
2022-08-08T07:51:23.684Z,16.72
2022-08-08T07:54:53.062Z,16.82
2022-08-08T07:58:13.626Z,16.82
2022-08-08T08:02:32.927Z,16.90
2022-08-08T08:04:49.375Z,17.14
2022-08-08T08:08:07.795Z,17.51
2022-08-08T08:11:38.256Z,18.03
2022-08-08T08:14:48.820Z,18.68
2022-08-08T08:18:07.153Z,19.30
2022-08-08T08:21:35.536Z,19.71
2022-08-08T08:24:37.712Z,20.05
2022-08-08T08:27:50.339Z,20.03
2022-08-08T08:31:07.976Z,19.85
2022-08-08T08:34:21.244Z,19.84
2022-08-08T08:37:47.957Z,19.75
2022-08-08T08:40:51.446Z,19.76
2022-08-08T08:44:14.088Z,20.43
2022-08-08T08:47:21.164Z,20.90
2022-08-08T08:50:35.333Z,20.95
2022-08-08T08:54:00.833Z,21.57
2022-08-08T08:57:15.782Z,21.56
2022-08-08T09:04:32.176Z,21.55
2022-08-08T09:07:39.266Z,21.71
2022-08-08T09:14:32.197Z,21.97
2022-08-08T09:17:55.687Z,22.28
2022-08-08T09:22:01.964Z,21.99
2022-08-08T09:24:17.678Z,21.96
2022-08-08T09:27:55.787Z,22.89
2022-08-08T09:34:31.588Z,23.62
2022-08-08T09:37:39.485Z,24.30
2022-08-08T09:40:43.981Z,24.78
2022-08-08T09:44:34.029Z,24.77
2022-08-08T09:48:03.950Z,24.66
2022-08-08T09:51:15.816Z,25.22
2022-08-08T09:54:37.637Z,25.31
2022-08-08T09:57:55.510Z,25.62
2022-08-08T10:01:02.020Z,25.65
2022-08-08T10:04:35.430Z,25.70
2022-08-08T10:07:36.038Z,25.56
2022-08-08T10:10:51.375Z,25.26
2022-08-08T10:14:07.440Z,25.25
2022-08-08T10:17:57.432Z,25.45
2022-08-08T10:20:51.090Z,25.39
2022-08-08T10:24:00.242Z,25.37
2022-08-08T10:27:13.698Z,24.84
2022-08-08T10:31:00.553Z,24.98
2022-08-08T10:34:19.827Z,25.09
2022-08-08T10:37:00.377Z,25.05
2022-08-08T10:40:23.333Z,25.07
2022-08-08T10:43:46.298Z,25.08
2022-08-08T10:46:58.211Z,24.99
2022-08-08T10:50:16.076Z,25.06
2022-08-08T10:53:56.438Z,25.50
2022-08-08T10:56:48.085Z,25.54
2022-08-08T11:00:03.462Z,25.68
2022-08-08T11:03:37.147Z,25.83
2022-08-08T11:06:42.046Z,26.40
2022-08-08T11:09:55.296Z,26.30
2022-08-08T11:13:28.773Z,26.15
2022-08-08T11:16:33.460Z,26.30
2022-08-08T11:19:46.771Z,26.86
2022-08-08T11:23:05.248Z,26.37
2022-08-08T11:26:28.014Z,26.28
2022-08-08T11:29:51.018Z,26.13
2022-08-08T11:32:55.509Z,25.83
2022-08-08T11:36:07.872Z,25.82
2022-08-08T11:39:21.838Z,25.68
2022-08-08T11:42:37.910Z,25.38
2022-08-08T11:46:09.842Z,25.19
2022-08-08T11:49:14.742Z,25.27
2022-08-08T11:52:29.765Z,25.51
2022-08-08T11:55:55.414Z,25.43
2022-08-08T11:59:16.794Z,25.38
2022-08-08T12:02:45.558Z,25.48
2022-08-08T12:05:59.360Z,25.43
2022-08-08T12:09:17.101Z,25.45
2022-08-08T12:12:36.498Z,25.37
2022-08-08T12:19:37.573Z,24.61
2022-08-08T12:22:56.981Z,24.53
2022-08-08T12:26:27.969Z,24.38
2022-08-08T12:29:44.837Z,24.39
2022-08-08T12:32:57.673Z,24.33
2022-08-08T12:36:20.294Z,24.34
2022-08-08T12:39:59.827Z,24.33
2022-08-08T12:42:55.848Z,24.20
2022-08-08T12:46:25.186Z,24.30
2022-08-08T12:49:44.995Z,24.60
2022-08-08T12:53:07.545Z,24.89
2022-08-08T12:56:24.112Z,24.94
2022-08-08T13:00:03.814Z,24.84
2022-08-08T13:03:04.877Z,24.76
2022-08-08T13:06:22.840Z,24.70
2022-08-08T13:10:05.995Z,24.60
2022-08-08T13:13:37.543Z,24.54
2022-08-08T13:16:51.101Z,24.46
2022-08-08T13:20:08.619Z,24.39
2022-08-08T13:23:36.996Z,24.35
2022-08-08T13:26:41.027Z,24.26
2022-08-08T13:30:01.523Z,24.27
2022-08-08T13:33:18.323Z,24.50
2022-08-08T13:36:29.645Z,24.88
2022-08-08T13:39:44.399Z,24.69
2022-08-08T13:43:17.073Z,24.54
2022-08-08T13:46:30.812Z,24.62
2022-08-08T13:50:38.335Z,24.85
2022-08-08T13:53:24.448Z,24.89
2022-08-08T13:56:27.196Z,24.94
2022-08-08T13:59:48.067Z,24.96
2022-08-08T14:03:26.401Z,25.02
2022-08-08T14:06:32.787Z,25.24
2022-08-08T14:10:04.551Z,25.13
2022-08-08T14:12:59.642Z,25.07
2022-08-08T14:16:16.403Z,25.14
2022-08-08T14:19:56.274Z,25.07
2022-08-08T14:22:54.669Z,24.93
2022-08-08T14:26:10.973Z,24.83
2022-08-08T14:29:30.778Z,24.76
2022-08-08T14:32:52.721Z,24.82
2022-08-08T14:36:11.460Z,24.74
2022-08-08T14:39:48.617Z,24.62
2022-08-08T14:42:55.304Z,24.35
2022-08-08T14:46:11.127Z,24.20
2022-08-08T14:49:31.891Z,24.33
2022-08-08T14:52:50.018Z,24.32
2022-08-08T14:56:04.414Z,24.33
2022-08-08T14:59:44.628Z,24.45
2022-08-08T15:02:33.136Z,24.52
2022-08-08T15:05:53.570Z,24.49
2022-08-08T15:09:00.954Z,24.37
2022-08-08T15:12:14.084Z,24.21
2022-08-08T15:16:02.125Z,24.22
2022-08-08T15:18:44.259Z,24.12
2022-08-08T15:21:56.221Z,23.99
2022-08-08T15:25:17.819Z,23.88
2022-08-08T15:28:34.146Z,23.66
2022-08-08T15:32:03.955Z,23.48
2022-08-08T15:34:56.381Z,23.38
2022-08-08T15:38:13.371Z,23.40
2022-08-08T15:41:37.031Z,23.36
2022-08-08T15:44:38.652Z,23.24
2022-08-08T15:48:15.237Z,23.27
2022-08-08T15:51:09.079Z,23.20
2022-08-08T15:54:38.389Z,23.18
2022-08-08T15:57:40.131Z,23.13
2022-08-08T16:00:50.926Z,23.10
2022-08-08T16:04:03.105Z,23.04
2022-08-08T16:07:15.186Z,23.02
2022-08-08T16:13:11.361Z,22.93
2022-08-08T16:13:45.219Z,22.83
2022-08-08T16:16:57.454Z,22.72
2022-08-08T16:20:13.391Z,22.69
2022-08-08T16:23:24.112Z,22.68
2022-08-08T16:26:42.300Z,22.58
2022-08-08T16:30:13.607Z,22.56
2022-08-08T16:33:09.421Z,22.53
2022-08-08T16:36:27.982Z,22.48
2022-08-08T16:40:02.236Z,22.42
2022-08-08T16:42:51.803Z,22.38
2022-08-08T16:46:43.399Z,22.30
2022-08-08T16:49:17.715Z,22.27
2022-08-08T16:55:03.228Z,22.29
2022-08-08T16:55:55.870Z,22.25
2022-08-08T16:58:59.654Z,22.25
2022-08-08T17:02:37.853Z,22.19
2022-08-08T17:05:44.798Z,22.23
2022-08-08T17:08:46.516Z,22.23
2022-08-08T17:12:02.379Z,22.23
2022-08-08T17:15:17.529Z,22.23
2022-08-08T17:18:30.217Z,22.24
2022-08-08T17:21:47.049Z,22.21
2022-08-08T17:25:00.428Z,22.17
2022-08-08T17:28:14.263Z,22.12
2022-08-08T17:31:45.689Z,22.11
2022-08-08T17:35:14.517Z,22.09
2022-08-08T17:37:55.381Z,22.02
2022-08-08T17:41:07.998Z,21.95
2022-08-08T17:44:19.974Z,21.90
2022-08-08T17:47:37.501Z,21.84
2022-08-08T17:50:49.193Z,21.77
2022-08-08T17:54:04.060Z,21.73
2022-08-08T17:57:15.211Z,21.64
2022-08-08T18:00:30.639Z,21.51
2022-08-08T18:03:42.063Z,21.43
2022-08-08T18:06:56.771Z,21.33
2022-08-08T18:10:14.685Z,21.30
2022-08-08T18:13:27.216Z,21.28
2022-08-08T18:16:43.448Z,21.22
2022-08-08T18:20:44.514Z,21.09
2022-08-08T18:23:12.514Z,20.98
2022-08-08T18:26:25.912Z,20.86
2022-08-08T18:29:40.393Z,20.73
2022-08-08T18:32:54.098Z,20.69
2022-08-08T18:36:18.660Z,20.66
2022-08-08T18:39:27.421Z,20.64
2022-08-08T18:42:37.435Z,20.55
2022-08-08T18:46:53.529Z,20.63
2022-08-08T18:49:05.146Z,20.61
2022-08-08T18:52:22.869Z,20.54
2022-08-08T18:55:32.571Z,20.51
2022-08-08T18:58:44.498Z,20.46
2022-08-08T19:02:24.931Z,20.46
2022-08-08T19:05:12.413Z,20.42
2022-08-08T19:08:29.328Z,20.38
2022-08-08T19:11:46.670Z,20.33
2022-08-08T19:14:55.037Z,20.36
2022-08-08T19:18:32.308Z,20.31
2022-08-08T19:21:29.097Z,20.34
2022-08-08T19:24:49.078Z,20.27
2022-08-08T19:27:55.963Z,20.21
2022-08-08T19:31:09.321Z,20.24
2022-08-08T19:34:36.307Z,20.30
2022-08-08T19:37:42.606Z,20.21
2022-08-08T19:40:48.362Z,20.18
2022-08-08T19:44:12.487Z,20.14
2022-08-08T19:47:23.940Z,20.05
2022-08-08T19:50:33.099Z,19.93
2022-08-08T19:53:53.192Z,19.79
2022-08-08T19:56:59.531Z,19.74
2022-08-08T20:00:30.783Z,19.73
2022-08-08T20:04:02.570Z,19.78
2022-08-08T20:06:46.656Z,19.82
2022-08-08T20:10:00.159Z,19.81
2022-08-08T20:14:13.309Z,19.83
2022-08-08T20:16:29.640Z,19.84
2022-08-08T20:19:42.153Z,19.75
2022-08-08T20:22:56.411Z,19.70
2022-08-08T20:26:08.992Z,19.73
2022-08-08T20:29:22.866Z,19.70
2022-08-08T20:32:37.082Z,19.68
2022-08-08T20:35:56.751Z,19.70
2022-08-08T20:39:03.870Z,19.73
2022-08-08T20:42:15.759Z,19.71
2022-08-08T20:45:54.382Z,19.69
2022-08-08T20:48:42.197Z,19.66
2022-08-08T20:51:54.110Z,19.60
2022-08-08T20:55:07.681Z,19.60
2022-08-08T20:58:23.302Z,19.60
2022-08-08T21:02:06.822Z,19.62
2022-08-08T21:04:50.287Z,19.68
2022-08-08T21:08:36.914Z,19.66
2022-08-08T21:11:17.129Z,19.57
2022-08-08T21:14:36.410Z,19.44
2022-08-08T21:17:55.976Z,19.49
2022-08-08T21:21:09.824Z,19.40
2022-08-08T21:24:30.268Z,19.29
2022-08-08T21:28:14.600Z,19.28
2022-08-08T21:31:05.907Z,19.14
2022-08-08T21:34:18.557Z,19.04
2022-08-08T21:37:53.976Z,19.03
2022-08-08T21:40:55.860Z,19.06
2022-08-08T21:43:59.389Z,18.98
2022-08-08T21:48:08.148Z,19.02
2022-08-08T21:50:27.370Z,18.98
2022-08-08T21:54:36.229Z,18.86
2022-08-08T21:56:54.524Z,18.75
2022-08-08T22:03:49.955Z,18.68
2022-08-08T22:07:09.614Z,18.67
2022-08-08T22:10:32.674Z,18.74
2022-08-08T22:13:51.610Z,18.76
2022-08-08T22:17:05.683Z,18.75
2022-08-08T22:20:29.075Z,18.69
2022-08-08T22:23:52.079Z,18.65
2022-08-08T22:27:04.428Z,18.62
2022-08-08T22:30:29.794Z,18.64
2022-08-08T22:34:13.772Z,18.66
2022-08-08T22:37:03.271Z,18.70
2022-08-08T22:40:18.510Z,18.69
2022-08-08T22:47:34.536Z,18.49
2022-08-08T22:50:31.884Z,18.43
2022-08-08T22:54:32.832Z,18.35
2022-08-08T22:56:59.271Z,18.29
2022-08-08T23:00:15.717Z,18.25
2022-08-08T23:03:34.413Z,18.19
2022-08-08T23:06:42.733Z,18.22
2022-08-08T23:09:58.661Z,18.13
2022-08-08T23:13:10.071Z,18.10
2022-08-08T23:16:38.995Z,18.12
2022-08-08T23:19:36.061Z,18.16
2022-08-08T23:22:57.351Z,18.19
2022-08-08T23:26:09.035Z,18.22
2022-08-08T23:29:22.636Z,18.25
2022-08-08T23:32:34.595Z,18.22
2022-08-08T23:36:06.523Z,18.26
2022-08-08T23:38:59.945Z,18.18
2022-08-08T23:42:14.152Z,18.27
2022-08-08T23:49:00.668Z,18.28
2022-08-08T23:49:05.326Z,18.29
2022-08-08T23:52:04.710Z,18.28
2022-08-08T23:55:22.279Z,18.31
2022-08-08T23:58:37.590Z,18.34
